createdAt,value
2018-09-03T00:00:38.716Z,6.37
2018-09-03T00:05:41.257Z,8.20
2018-09-03T00:10:43.392Z,6.70
2018-09-03T00:15:45.538Z,7.37
2018-09-03T00:20:47.743Z,7.43
2018-09-03T00:25:49.873Z,7.23
2018-09-03T00:30:55.893Z,6.30
2018-09-03T00:36:03.673Z,6.33
2018-09-03T00:41:11.516Z,6.80
2018-09-03T00:46:19.362Z,7.00
2018-09-03T00:51:21.494Z,7.23
2018-09-03T00:56:23.601Z,6.50
2018-09-03T01:01:26.068Z,6.23
2018-09-03T01:06:28.187Z,6.40
2018-09-03T01:11:30.356Z,5.70
2018-09-03T01:16:32.471Z,6.17
2018-09-03T01:21:34.574Z,5.80
2018-09-03T01:26:36.669Z,6.03
2018-09-03T01:31:38.775Z,5.50
2018-09-03T01:36:40.920Z,5.97
2018-09-03T01:41:43.035Z,5.87
2018-09-03T01:46:45.232Z,6.47
2018-09-03T01:51:47.367Z,5.80
2018-09-03T01:56:49.478Z,5.63
2018-09-03T02:01:51.596Z,6.40
2018-09-03T02:06:54.750Z,6.60
2018-09-03T02:11:56.888Z,5.80
2018-09-03T02:16:59.041Z,5.50
2018-09-03T02:22:01.199Z,5.40
2018-09-03T02:27:03.462Z,5.70
2018-09-03T02:32:05.702Z,5.87
2018-09-03T02:37:07.854Z,5.30
2018-09-03T02:42:09.983Z,6.30
2018-09-03T02:47:12.107Z,5.23
2018-09-03T02:52:14.210Z,5.53
2018-09-03T02:57:16.382Z,6.00
2018-09-03T03:02:18.546Z,5.53
2018-09-03T03:07:20.671Z,4.93
2018-09-03T03:12:23.941Z,5.07
2018-09-03T03:17:26.078Z,5.33
2018-09-03T03:22:28.200Z,4.27
2018-09-03T03:27:30.322Z,4.30
2018-09-03T03:32:32.434Z,4.13
2018-09-03T03:37:34.591Z,4.13
2018-09-03T03:42:36.691Z,4.37
2018-09-03T03:47:39.099Z,4.50
2018-09-03T03:52:41.284Z,4.37
2018-09-03T03:57:43.403Z,4.57
2018-09-03T04:02:45.531Z,4.40
2018-09-03T04:07:47.698Z,4.63
2018-09-03T04:12:57.876Z,5.30
2018-09-03T04:18:00.343Z,5.37
2018-09-03T04:23:02.554Z,5.03
2018-09-03T04:28:04.687Z,5.17
2018-09-03T04:33:06.878Z,4.90
2018-09-03T04:38:09.026Z,5.80
2018-09-03T04:43:11.143Z,5.43
2018-09-03T04:48:13.264Z,5.67
2018-09-03T04:53:15.371Z,5.53
2018-09-03T04:58:17.808Z,4.97
2018-09-03T05:03:19.917Z,5.07
2018-09-03T05:08:22.063Z,4.80
2018-09-03T05:13:24.251Z,5.00
2018-09-03T05:18:26.407Z,4.80
2018-09-03T05:23:28.546Z,5.10
2018-09-03T05:28:30.662Z,4.43
2018-09-03T05:33:32.849Z,4.47
2018-09-03T05:38:35.034Z,4.30
2018-09-03T05:43:37.324Z,4.90
2018-09-03T05:48:40.012Z,4.50
2018-09-03T05:53:42.226Z,4.80
2018-09-03T05:58:44.486Z,4.13
2018-09-03T06:03:46.650Z,4.57
2018-09-03T06:08:48.787Z,4.73
2018-09-03T06:13:50.929Z,4.17
2018-09-03T06:18:53.046Z,4.63
2018-09-03T06:23:55.295Z,4.43
2018-09-03T06:28:57.446Z,4.50
2018-09-03T06:33:59.593Z,4.10
2018-09-03T06:39:01.832Z,5.10
2018-09-03T06:44:04.002Z,4.30
2018-09-03T06:49:06.131Z,4.50
2018-09-03T06:54:08.296Z,4.97
2018-09-03T06:59:10.401Z,4.40
2018-09-03T07:04:12.522Z,5.30
2018-09-03T07:09:14.684Z,4.87
2018-09-03T07:14:16.843Z,5.33
2018-09-03T07:19:18.967Z,4.80
2018-09-03T07:24:21.086Z,4.87
2018-09-03T07:29:23.268Z,4.30
2018-09-03T07:34:25.485Z,5.30
2018-09-03T07:39:27.602Z,6.00
2018-09-03T07:44:29.750Z,4.97
2018-09-03T07:49:31.883Z,4.73
2018-09-03T07:54:34.128Z,5.10
2018-09-03T07:59:36.284Z,5.30
2018-09-03T08:04:38.412Z,5.00
2018-09-03T08:09:40.557Z,5.87
2018-09-03T08:14:42.652Z,5.70
2018-09-03T08:19:44.797Z,4.97
2018-09-03T08:24:46.962Z,6.50
2018-09-03T08:29:49.096Z,6.37
2018-09-03T08:34:51.327Z,5.80
2018-09-03T08:39:53.624Z,6.13
2018-09-03T08:44:55.751Z,5.90
2018-09-03T08:49:57.894Z,5.90
2018-09-03T08:55:00.051Z,7.57
2018-09-03T09:00:02.194Z,6.47
2018-09-03T09:05:04.465Z,6.57
2018-09-03T09:10:06.693Z,6.87
2018-09-03T09:15:08.834Z,6.50
2018-09-03T09:20:11.020Z,6.57
2018-09-03T09:25:13.116Z,7.80
2018-09-03T09:30:15.502Z,7.53
2018-09-03T09:35:17.640Z,6.40
2018-09-03T09:40:20.016Z,7.03
2018-09-03T09:45:22.164Z,7.30
2018-09-03T09:50:24.488Z,6.10
2018-09-03T09:55:26.658Z,7.50
2018-09-03T10:00:34.381Z,7.93
2018-09-03T10:05:36.491Z,7.87
2018-09-03T10:10:38.625Z,8.47
2018-09-03T10:15:40.754Z,7.60
2018-09-03T10:20:42.900Z,6.53
2018-09-03T10:25:45.008Z,7.40
2018-09-03T10:30:47.152Z,7.23
2018-09-03T10:35:49.311Z,7.73
2018-09-03T10:40:51.495Z,7.17
2018-09-03T10:45:53.654Z,7.33
2018-09-03T10:50:55.745Z,7.37
2018-09-03T10:55:57.872Z,8.10
2018-09-03T11:01:00.014Z,8.30
2018-09-03T11:06:02.135Z,6.53
2018-09-03T11:11:04.261Z,6.60
2018-09-03T11:16:06.431Z,7.43
2018-09-03T11:21:08.608Z,6.50
2018-09-03T11:26:10.720Z,7.33
2018-09-03T11:31:12.880Z,7.47
2018-09-03T11:36:15.023Z,6.70
2018-09-03T11:41:17.245Z,6.40
2018-09-03T11:46:19.388Z,7.40
2018-09-03T11:51:21.530Z,6.50
2018-09-03T11:56:24.527Z,6.90
2018-09-03T12:01:26.680Z,6.57
2018-09-03T12:06:28.852Z,5.83
2018-09-03T12:11:30.980Z,6.20
2018-09-03T12:16:33.161Z,6.53
2018-09-03T12:21:35.299Z,6.20
2018-09-03T12:26:37.491Z,4.30
2018-09-03T12:31:39.636Z,5.00
2018-09-03T12:36:41.775Z,5.50
2018-09-03T12:41:43.940Z,5.80
2018-09-03T12:46:46.466Z,4.50
2018-09-03T12:51:48.728Z,5.83
2018-09-03T12:56:50.955Z,4.83
2018-09-03T13:01:53.139Z,6.73
2018-09-03T13:06:55.324Z,5.53
2018-09-03T13:11:57.507Z,5.43
2018-09-03T13:16:59.670Z,6.00
2018-09-03T13:22:01.846Z,5.20
2018-09-03T13:27:04.123Z,5.00
2018-09-03T13:32:06.269Z,4.80
2018-09-03T13:37:08.439Z,4.70
2018-09-03T13:42:10.652Z,5.60
2018-09-03T13:47:12.767Z,5.13
2018-09-03T13:52:14.943Z,4.80
2018-09-03T13:57:17.132Z,4.90
2018-09-03T14:02:19.747Z,5.10
2018-09-03T14:07:23.019Z,5.37
2018-09-03T14:12:25.205Z,4.60
2018-09-03T14:17:27.654Z,4.67
2018-09-03T14:22:29.854Z,5.60
2018-09-03T14:27:32.058Z,4.80
2018-09-03T14:32:34.222Z,4.97
2018-09-03T14:37:36.340Z,5.50
2018-09-03T14:42:38.565Z,5.70
2018-09-03T14:47:40.699Z,4.93
2018-09-03T14:52:42.863Z,5.10
2018-09-03T14:57:45.028Z,5.30
2018-09-03T15:02:47.199Z,5.27
2018-09-03T15:07:50.134Z,4.43
2018-09-03T15:12:52.289Z,5.17
2018-09-03T15:17:54.443Z,4.97
2018-09-03T15:22:56.597Z,5.13
2018-09-03T15:27:58.768Z,4.70
2018-09-03T15:33:00.948Z,5.10
2018-09-03T15:38:03.136Z,5.07
2018-09-03T15:43:05.365Z,5.30
2018-09-03T15:48:07.529Z,4.90
2018-09-03T15:53:09.667Z,5.03
2018-09-03T15:58:11.850Z,4.93
2018-09-03T16:03:13.983Z,5.73
2018-09-03T16:08:16.115Z,6.07
2018-09-03T16:13:18.242Z,5.07
2018-09-03T16:18:20.497Z,5.80
2018-09-03T16:23:22.662Z,5.60
2018-09-03T16:28:24.832Z,5.43
2018-09-03T16:33:27.711Z,5.10
2018-09-03T16:38:29.882Z,5.80
2018-09-03T16:43:32.058Z,5.17
2018-09-03T16:48:34.227Z,4.97
2018-09-03T16:53:36.399Z,4.57
2018-09-03T16:58:38.603Z,5.17
2018-09-03T17:03:40.791Z,5.27
2018-09-03T17:08:43.720Z,5.23
2018-09-03T17:13:45.956Z,4.77
2018-09-03T17:18:48.195Z,4.50
2018-09-03T17:23:50.432Z,4.60
2018-09-03T17:28:52.623Z,4.07
2018-09-03T17:33:55.423Z,4.50
2018-09-03T17:38:57.690Z,4.10
2018-09-03T17:44:00.085Z,4.83
2018-09-03T17:49:02.397Z,4.70
2018-09-03T17:54:04.676Z,4.23
2018-09-03T17:59:06.910Z,4.33
2018-09-03T18:04:09.143Z,4.40
2018-09-03T18:09:11.390Z,4.23
2018-09-03T18:14:13.621Z,3.50
2018-09-03T18:19:15.840Z,4.57
2018-09-03T18:24:18.070Z,3.60
2018-09-03T18:29:20.302Z,4.73
2018-09-03T18:34:22.441Z,4.90
2018-09-03T18:39:24.663Z,3.60
2018-09-03T18:44:26.984Z,4.17
2018-09-03T18:49:29.239Z,5.30
2018-09-03T18:54:31.465Z,4.00
2018-09-03T18:59:33.750Z,4.73
2018-09-03T19:04:36.377Z,4.70
2018-09-03T19:09:38.758Z,4.27
2018-09-03T19:14:41.042Z,4.47
2018-09-03T19:19:43.371Z,4.57
2018-09-03T19:24:45.660Z,4.30
2018-09-03T19:29:47.934Z,4.23
2018-09-03T19:34:50.180Z,5.20
2018-09-03T19:39:52.432Z,4.80
2018-09-03T19:44:54.720Z,5.33
2018-09-03T19:49:57.017Z,4.30
2018-09-03T19:54:59.215Z,4.63
2018-09-03T20:00:01.509Z,4.67
2018-09-03T20:05:03.768Z,5.10
2018-09-03T20:10:05.963Z,5.30
2018-09-03T20:15:09.644Z,3.87
2018-09-03T20:20:11.892Z,4.63
2018-09-03T20:25:14.176Z,4.60
2018-09-03T20:30:16.416Z,4.70
2018-09-03T20:35:20.553Z,4.77
2018-09-03T20:40:22.792Z,5.17
2018-09-03T20:45:25.020Z,4.97
2018-09-03T20:50:27.219Z,4.70
2018-09-03T20:55:29.433Z,5.47
2018-09-03T21:00:31.676Z,5.50
2018-09-03T21:05:33.867Z,5.00
2018-09-03T21:10:36.399Z,4.83
2018-09-03T21:15:38.623Z,6.23
2018-09-03T21:20:40.808Z,5.63
2018-09-03T21:25:42.981Z,5.93
2018-09-03T21:30:45.139Z,4.53
2018-09-03T21:35:47.334Z,5.70
2018-09-03T21:40:49.896Z,5.43
2018-09-03T21:45:52.146Z,5.13
2018-09-03T21:50:54.326Z,5.33
2018-09-03T21:55:56.575Z,5.50
2018-09-03T22:00:58.729Z,6.07
2018-09-03T22:06:00.866Z,5.97
2018-09-03T22:11:03.668Z,5.73
2018-09-03T22:16:07.722Z,5.20
2018-09-03T22:21:09.872Z,7.20
2018-09-03T22:26:12.008Z,5.50
2018-09-03T22:31:14.239Z,6.73
2018-09-03T22:36:16.387Z,5.40
2018-09-03T22:41:18.528Z,5.73
2018-09-03T22:46:20.712Z,5.63
2018-09-03T22:51:22.906Z,5.80
2018-09-03T22:56:25.049Z,6.77
2018-09-03T23:01:27.170Z,6.27
2018-09-03T23:06:29.279Z,5.60
2018-09-03T23:11:31.465Z,5.70
2018-09-03T23:16:33.599Z,6.33
2018-09-03T23:21:35.768Z,6.30
2018-09-03T23:26:37.906Z,6.13
2018-09-03T23:31:40.054Z,6.50
2018-09-03T23:36:42.201Z,5.33
2018-09-03T23:41:44.342Z,6.40
2018-09-03T23:46:46.539Z,6.13
2018-09-03T23:51:48.658Z,6.60
2018-09-03T23:56:50.775Z,6.60
